sensor_id;sensor_type;location;lat;lon;timestamp;P1;durP1;ratioP1;P2;durP2;ratioP2
33840;SDS011;20142;28.494;-16.312;2022-09-02T12:43:15;30.13;;;5.05;;
33840;SDS011;20142;28.494;-16.312;2022-09-02T12:48:27;25.77;;;5.10;;
33840;SDS011;20142;28.494;-16.312;2022-09-02T12:53:45;29.63;;;5.18;;
33840;SDS011;20142;28.494;-16.312;2022-09-02T12:58:50;25.05;;;4.78;;
33840;SDS011;20142;28.494;-16.312;2022-09-02T13:14:36;23.45;;;4.35;;
33840;SDS011;20142;28.494;-16.312;2022-09-02T13:25:28;24.67;;;4.15;;
33840;SDS011;20142;28.494;-16.312;2022-09-02T13:36:18;25.38;;;3.97;;
33840;SDS011;20142;28.494;-16.312;2022-09-02T13:41:29;26.60;;;4.25;;
33840;SDS011;20142;28.494;-16.312;2022-09-02T13:46:32;26.15;;;4.20;;
33840;SDS011;20142;28.494;-16.312;2022-09-02T13:51:34;27.08;;;4.63;;
33840;SDS011;20142;28.494;-16.312;2022-09-02T13:56:35;36.92;;;5.05;;
33840;SDS011;20142;28.494;-16.312;2022-09-02T14:01:37;25.60;;;4.57;;
33840;SDS011;20142;28.494;-16.312;2022-09-02T14:06:40;19.42;;;3.80;;
33840;SDS011;20142;28.494;-16.312;2022-09-02T14:11:44;24.17;;;3.90;;
33840;SDS011;20142;28.494;-16.312;2022-09-02T14:16:47;22.05;;;3.50;;
33840;SDS011;20142;28.494;-16.312;2022-09-02T14:21:50;24.15;;;4.15;;
33840;SDS011;20142;28.494;-16.312;2022-09-02T14:26:56;25.92;;;3.85;;
33840;SDS011;20142;28.494;-16.312;2022-09-02T14:32:08;17.60;;;3.40;;
33840;SDS011;20142;28.494;-16.312;2022-09-02T14:37:20;25.90;;;4.15;;
33840;SDS011;20142;28.494;-16.312;2022-09-02T14:42:28;22.58;;;4.05;;
33840;SDS011;20142;28.494;-16.312;2022-09-02T14:47:29;30.90;;;3.95;;
33840;SDS011;20142;28.494;-16.312;2022-09-02T14:52:37;24.60;;;3.10;;
33840;SDS011;20142;28.494;-16.312;2022-09-02T15:01:14;22.92;;;3.15;;
33840;SDS011;20142;28.494;-16.312;2022-09-02T15:06:16;15.85;;;3.22;;
33840;SDS011;20142;28.494;-16.312;2022-09-02T15:11:19;16.75;;;3.33;;
33840;SDS011;20142;28.494;-16.312;2022-09-02T15:16:21;22.63;;;3.83;;
33840;SDS011;20142;28.494;-16.312;2022-09-02T15:21:23;17.48;;;3.20;;
33840;SDS011;20142;28.494;-16.312;2022-09-02T15:26:25;22.33;;;3.22;;
33840;SDS011;20142;28.494;-16.312;2022-09-02T15:31:27;16.38;;;3.55;;
33840;SDS011;20142;28.494;-16.312;2022-09-02T15:36:29;17.60;;;3.55;;
33840;SDS011;20142;28.494;-16.312;2022-09-02T15:41:31;16.55;;;3.25;;
33840;SDS011;20142;28.494;-16.312;2022-09-02T15:46:34;19.63;;;3.38;;
33840;SDS011;20142;28.494;-16.312;2022-09-02T15:51:39;18.38;;;3.38;;
33840;SDS011;20142;28.494;-16.312;2022-09-02T15:56:45;15.05;;;3.00;;
33840;SDS011;20142;28.494;-16.312;2022-09-02T16:01:48;23.48;;;3.92;;
33840;SDS011;20142;28.494;-16.312;2022-09-02T16:06:52;15.55;;;3.63;;
33840;SDS011;20142;28.494;-16.312;2022-09-02T16:11:54;21.67;;;4.22;;
33840;SDS011;20142;28.494;-16.312;2022-09-02T16:16:56;22.08;;;3.08;;
33840;SDS011;20142;28.494;-16.312;2022-09-02T16:21:58;19.00;;;3.60;;
33840;SDS011;20142;28.494;-16.312;2022-09-02T16:27:00;16.90;;;3.92;;
33840;SDS011;20142;28.494;-16.312;2022-09-02T16:32:02;13.52;;;3.63;;
33840;SDS011;20142;28.494;-16.312;2022-09-02T16:37:05;17.40;;;3.47;;
33840;SDS011;20142;28.494;-16.312;2022-09-02T16:42:06;19.35;;;3.25;;
33840;SDS011;20142;28.494;-16.312;2022-09-02T16:47:08;18.58;;;3.95;;
33840;SDS011;20142;28.494;-16.312;2022-09-02T16:52:10;19.38;;;3.55;;
33840;SDS011;20142;28.494;-16.312;2022-09-02T16:57:12;24.08;;;4.00;;
33840;SDS011;20142;28.494;-16.312;2022-09-02T17:02:14;21.38;;;4.15;;
33840;SDS011;20142;28.494;-16.312;2022-09-02T17:07:16;17.88;;;3.22;;
33840;SDS011;20142;28.494;-16.312;2022-09-02T17:12:18;17.55;;;3.55;;
33840;SDS011;20142;28.494;-16.312;2022-09-02T17:17:20;14.85;;;3.60;;
33840;SDS011;20142;28.494;-16.312;2022-09-02T17:22:22;16.20;;;3.75;;
33840;SDS011;20142;28.494;-16.312;2022-09-02T17:27:24;20.17;;;3.65;;
33840;SDS011;20142;28.494;-16.312;2022-09-02T17:32:26;25.48;;;4.05;;
33840;SDS011;20142;28.494;-16.312;2022-09-02T17:37:29;26.83;;;4.35;;
33840;SDS011;20142;28.494;-16.312;2022-09-02T17:42:32;22.35;;;4.22;;
33840;SDS011;20142;28.494;-16.312;2022-09-02T17:47:34;20.27;;;3.45;;
33840;SDS011;20142;28.494;-16.312;2022-09-02T17:52:37;25.08;;;4.63;;
33840;SDS011;20142;28.494;-16.312;2022-09-02T18:13:48;27.65;;;3.80;;
33840;SDS011;20142;28.494;-16.312;2022-09-02T18:19:11;22.70;;;4.18;;
33840;SDS011;20142;28.494;-16.312;2022-09-02T18:24:31;22.20;;;4.07;;
33840;SDS011;20142;28.494;-16.312;2022-09-02T18:34:53;26.70;;;3.85;;
33840;SDS011;20142;28.494;-16.312;2022-09-02T18:50:35;25.15;;;4.22;;
33840;SDS011;20142;28.494;-16.312;2022-09-02T18:55:42;25.42;;;4.57;;
33840;SDS011;20142;28.494;-16.312;2022-09-02T19:00:46;20.75;;;3.33;;
33840;SDS011;20142;28.494;-16.312;2022-09-02T19:05:50;21.42;;;3.25;;
33840;SDS011;20142;28.494;-16.312;2022-09-02T19:11:06;21.55;;;3.10;;
33840;SDS011;20142;28.494;-16.312;2022-09-02T19:16:45;22.07;;;3.23;;
33840;SDS011;20142;28.494;-16.312;2022-09-02T19:22:02;19.33;;;3.90;;
33840;SDS011;20142;28.494;-16.312;2022-09-02T19:27:04;18.92;;;3.17;;
33840;SDS011;20142;28.494;-16.312;2022-09-02T19:32:12;22.10;;;3.05;;
33840;SDS011;20142;28.494;-16.312;2022-09-02T19:37:14;22.40;;;2.92;;
33840;SDS011;20142;28.494;-16.312;2022-09-02T19:42:17;20.38;;;3.28;;
33840;SDS011;20142;28.494;-16.312;2022-09-02T19:47:20;19.00;;;3.03;;
33840;SDS011;20142;28.494;-16.312;2022-09-02T19:52:23;13.55;;;2.60;;
33840;SDS011;20142;28.494;-16.312;2022-09-02T19:57:24;14.27;;;2.22;;
33840;SDS011;20142;28.494;-16.312;2022-09-02T20:02:26;18.15;;;2.88;;
33840;SDS011;20142;28.494;-16.312;2022-09-02T20:07:28;15.80;;;3.03;;
33840;SDS011;20142;28.494;-16.312;2022-09-02T20:12:31;16.92;;;2.60;;
33840;SDS011;20142;28.494;-16.312;2022-09-02T20:17:35;21.17;;;3.38;;
33840;SDS011;20142;28.494;-16.312;2022-09-02T20:22:37;16.50;;;3.08;;
33840;SDS011;20142;28.494;-16.312;2022-09-02T20:33:20;16.00;;;2.92;;
33840;SDS011;20142;28.494;-16.312;2022-09-02T21:05:31;16.25;;;3.30;;
33840;SDS011;20142;28.494;-16.312;2022-09-02T21:10:14;15.27;;;2.47;;
33840;SDS011;20142;28.494;-16.312;2022-09-02T21:20:41;26.70;;;3.47;;
33840;SDS011;20142;28.494;-16.312;2022-09-02T21:25:51;16.30;;;3.10;;
33840;SDS011;20142;28.494;-16.312;2022-09-02T21:31:00;15.85;;;2.95;;
33840;SDS011;20142;28.494;-16.312;2022-09-02T21:36:08;22.83;;;3.20;;
33840;SDS011;20142;28.494;-16.312;2022-09-02T21:51:37;20.35;;;3.97;;
33840;SDS011;20142;28.494;-16.312;2022-09-02T21:56:48;16.42;;;3.08;;
33840;SDS011;20142;28.494;-16.312;2022-09-02T22:12:38;25.30;;;4.37;;
33840;SDS011;20142;28.494;-16.312;2022-09-02T22:17:47;21.52;;;3.38;;
33840;SDS011;20142;28.494;-16.312;2022-09-02T22:22:53;17.92;;;3.17;;
33840;SDS011;20142;28.494;-16.312;2022-09-02T22:28:10;14.57;;;3.03;;
33840;SDS011;20142;28.494;-16.312;2022-09-02T22:33:16;25.00;;;3.13;;
33840;SDS011;20142;28.494;-16.312;2022-09-02T22:38:28;26.38;;;3.05;;
33840;SDS011;20142;28.494;-16.312;2022-09-02T22:44:26;23.30;;;2.85;;
33840;SDS011;20142;28.494;-16.312;2022-09-02T22:49:54;21.42;;;3.03;;
33840;SDS011;20142;28.494;-16.312;2022-09-02T23:06:28;24.10;;;3.30;;
33840;SDS011;20142;28.494;-16.312;2022-09-02T23:11:38;19.02;;;2.95;;
33840;SDS011;20142;28.494;-16.312;2022-09-02T23:23:14;18.08;;;3.15;;
33840;SDS011;20142;28.494;-16.312;2022-09-02T23:28:11;23.83;;;2.83;;
33840;SDS011;20142;28.494;-16.312;2022-09-02T23:33:32;19.10;;;2.75;;
33840;SDS011;20142;28.494;-16.312;2022-09-02T23:44:12;16.15;;;3.92;;
33840;SDS011;20142;28.494;-16.312;2022-09-02T23:49:18;20.33;;;3.42;;
33840;SDS011;20142;28.494;-16.312;2022-09-02T23:54:34;16.85;;;2.90;;
33840;SDS011;20142;28.494;-16.312;2022-09-02T23:59:48;19.00;;;2.90;;
